createdAt,value
2023-03-15T00:01:46.650Z,0.75
2023-03-15T00:04:14.299Z,0.98
2023-03-15T00:06:41.049Z,1.20
2023-03-15T00:09:07.918Z,2.47
2023-03-15T00:11:34.713Z,0.88
2023-03-15T00:14:02.505Z,1.13
2023-03-15T00:16:29.437Z,1.48
2023-03-15T00:18:56.297Z,1.20
2023-03-15T00:21:23.203Z,1.05
2023-03-15T00:23:50.003Z,2.17
2023-03-15T00:26:16.815Z,1.05
2023-03-15T00:28:43.641Z,1.35
2023-03-15T00:31:23.881Z,1.27
2023-03-15T00:33:53.695Z,1.23
2023-03-15T00:36:23.672Z,1.27
2023-03-15T00:38:50.927Z,1.45
2023-03-15T00:41:18.445Z,1.70
2023-03-15T00:43:45.299Z,1.50
2023-03-15T00:46:12.312Z,1.98
2023-03-15T00:48:39.125Z,1.40
2023-03-15T00:51:13.782Z,1.00
2023-03-15T00:53:42.215Z,1.10
2023-03-15T00:56:14.251Z,1.13
2023-03-15T00:58:41.340Z,1.17
2023-03-15T01:01:09.414Z,1.77
2023-03-15T01:03:37.037Z,1.45
2023-03-15T01:06:23.815Z,1.55
2023-03-15T01:08:51.476Z,1.23
2023-03-15T01:11:21.294Z,1.40
2023-03-15T01:13:47.979Z,1.70
2023-03-15T01:16:15.063Z,1.88
2023-03-15T01:18:42.530Z,2.00
2023-03-15T01:21:10.458Z,1.42
2023-03-15T01:23:37.241Z,1.30
2023-03-15T01:26:04.955Z,1.50
2023-03-15T01:28:31.698Z,2.90
2023-03-15T01:30:59.965Z,1.38
2023-03-15T01:33:27.305Z,1.80
2023-03-15T01:36:01.014Z,1.17
2023-03-15T01:38:27.902Z,1.45
2023-03-15T01:40:54.602Z,1.08
2023-03-15T01:43:22.751Z,1.88
2023-03-15T01:46:01.375Z,2.55
2023-03-15T01:48:35.979Z,1.30
2023-03-15T01:51:04.915Z,1.67
2023-03-15T01:53:31.638Z,1.80
2023-03-15T01:55:58.323Z,1.63
2023-03-15T01:58:25.809Z,1.45
2023-03-15T02:00:53.080Z,1.17
2023-03-15T02:03:28.426Z,1.27
2023-03-15T02:05:57.618Z,1.20
2023-03-15T02:08:27.009Z,1.42
2023-03-15T02:10:54.671Z,1.80
2023-03-15T02:13:22.821Z,1.52
2023-03-15T02:15:49.806Z,1.38
2023-03-15T02:18:16.753Z,1.15
2023-03-15T02:21:01.933Z,1.75
2023-03-15T02:23:28.625Z,1.30
2023-03-15T02:26:21.808Z,1.67
2023-03-15T02:28:48.479Z,1.50
2023-03-15T02:31:15.444Z,1.30
2023-03-15T02:33:47.412Z,1.83
2023-03-15T02:36:21.015Z,1.63
2023-03-15T02:38:47.902Z,1.50
2023-03-15T02:41:17.330Z,2.38
2023-03-15T02:43:44.024Z,1.50
2023-03-15T02:46:10.913Z,1.50
2023-03-15T02:48:37.954Z,1.60
2023-03-15T02:51:04.828Z,1.77
2023-03-15T02:53:32.255Z,1.33
2023-03-15T02:55:59.013Z,1.70
2023-03-15T02:58:25.838Z,1.75
2023-03-15T03:00:53.845Z,2.10
2023-03-15T03:03:20.666Z,1.40
2023-03-15T03:05:47.397Z,1.65
2023-03-15T03:08:16.394Z,1.88
2023-03-15T03:10:43.355Z,1.77
2023-03-15T03:13:10.097Z,1.40
2023-03-15T03:15:36.955Z,1.67
2023-03-15T03:18:03.854Z,2.10
2023-03-15T03:20:30.517Z,1.65
2023-03-15T03:22:57.176Z,1.55
2023-03-15T03:25:27.291Z,2.30
2023-03-15T03:27:57.124Z,1.95
2023-03-15T03:30:24.438Z,1.88
2023-03-15T03:32:51.326Z,1.67
2023-03-15T03:35:18.123Z,2.05
2023-03-15T03:37:45.053Z,1.45
2023-03-15T03:40:12.455Z,1.55
2023-03-15T03:42:39.188Z,3.55
2023-03-15T03:45:06.845Z,3.42
2023-03-15T03:47:34.134Z,1.70
2023-03-15T03:50:00.872Z,1.67
2023-03-15T03:52:27.616Z,2.58
2023-03-15T03:54:54.411Z,2.00
2023-03-15T03:57:21.277Z,2.42
2023-03-15T03:59:48.075Z,2.05
2023-03-15T04:02:14.851Z,1.88
2023-03-15T04:04:42.116Z,2.00
2023-03-15T04:07:09.006Z,1.77
2023-03-15T04:09:38.872Z,3.85
2023-03-15T04:12:06.446Z,3.55
2023-03-15T04:14:33.272Z,1.42
2023-03-15T04:17:00.009Z,2.00
2023-03-15T04:19:27.100Z,2.38
2023-03-15T04:21:53.831Z,1.40
2023-03-15T04:24:20.567Z,1.92
2023-03-15T04:26:47.229Z,1.65
2023-03-15T04:29:15.292Z,2.08
2023-03-15T04:31:43.253Z,2.38
2023-03-15T04:34:10.305Z,2.30
2023-03-15T04:36:37.180Z,2.33
2023-03-15T04:39:07.404Z,1.88
2023-03-15T04:41:37.030Z,2.45
2023-03-15T04:44:04.034Z,2.42
2023-03-15T04:46:32.134Z,2.85
2023-03-15T04:48:59.000Z,2.92
2023-03-15T04:51:25.680Z,2.70
2023-03-15T04:53:52.589Z,1.92
2023-03-15T04:56:19.281Z,2.17
2023-03-15T04:58:46.065Z,2.00
2023-03-15T05:01:13.061Z,2.50
2023-03-15T05:03:39.792Z,2.75
2023-03-15T05:06:08.259Z,2.30
2023-03-15T05:08:36.568Z,2.95
2023-03-15T05:11:04.278Z,2.80
2023-03-15T05:13:31.021Z,2.55
2023-03-15T05:15:57.761Z,2.22
2023-03-15T05:18:24.504Z,2.90
2023-03-15T05:20:51.266Z,2.30
2023-03-15T05:23:17.964Z,3.83
2023-03-15T05:25:49.272Z,2.97
2023-03-15T05:28:18.360Z,2.40
2023-03-15T05:30:45.055Z,3.00
2023-03-15T05:33:11.884Z,2.75
2023-03-15T05:35:38.648Z,4.13
2023-03-15T05:38:06.084Z,2.83
2023-03-15T05:40:33.314Z,2.72
2023-03-15T05:43:00.120Z,2.75
2023-03-15T05:45:27.026Z,3.33
2023-03-15T05:47:53.766Z,2.92
2023-03-15T05:50:20.441Z,3.33
2023-03-15T05:52:47.121Z,2.85
2023-03-15T05:55:13.795Z,3.47
2023-03-15T05:57:41.215Z,3.42
2023-03-15T06:00:09.309Z,4.63
2023-03-15T06:02:36.041Z,3.83
2023-03-15T06:05:02.882Z,2.90
2023-03-15T06:07:29.546Z,3.97
2023-03-15T06:09:56.194Z,3.78
2023-03-15T06:12:22.966Z,4.05
2023-03-15T06:14:49.643Z,4.40
2023-03-15T06:17:16.361Z,4.13
2023-03-15T06:19:43.036Z,4.20
2023-03-15T06:22:09.906Z,3.10
2023-03-15T06:24:36.611Z,3.10
2023-03-15T06:27:03.434Z,4.07
2023-03-15T06:29:30.235Z,3.30
2023-03-15T06:31:57.163Z,3.45
2023-03-15T06:34:23.861Z,5.35
2023-03-15T06:36:52.525Z,4.47
2023-03-15T06:39:19.277Z,5.63
2023-03-15T06:41:46.183Z,4.70
2023-03-15T06:44:12.886Z,4.65
2023-03-15T06:46:39.898Z,5.50
2023-03-15T06:49:06.639Z,4.80
2023-03-15T06:51:33.401Z,4.00
2023-03-15T06:54:00.119Z,4.10
2023-03-15T06:56:26.786Z,4.28
2023-03-15T06:58:53.554Z,4.93
2023-03-15T07:01:20.379Z,5.38
2023-03-15T07:03:47.126Z,4.83
2023-03-15T07:06:13.946Z,5.70
2023-03-15T07:08:40.838Z,5.32
2023-03-15T07:11:07.678Z,5.38
2023-03-15T07:13:34.546Z,6.13
2023-03-15T07:16:01.348Z,5.90
2023-03-15T07:18:28.096Z,5.20
2023-03-15T07:21:03.037Z,5.40
2023-03-15T07:23:30.481Z,5.75
2023-03-15T07:25:57.299Z,4.90
2023-03-15T07:28:24.782Z,5.25
2023-03-15T07:30:56.933Z,4.80
2023-03-15T07:33:24.515Z,5.32
2023-03-15T07:35:51.761Z,5.47
2023-03-15T07:38:19.338Z,6.22
2023-03-15T07:40:46.079Z,5.90
2023-03-15T07:43:12.782Z,6.15
2023-03-15T07:45:39.496Z,5.07
2023-03-15T07:48:06.495Z,6.00
2023-03-15T07:50:33.211Z,4.90
2023-03-15T07:52:59.910Z,5.95
2023-03-15T07:55:26.752Z,6.32
2023-03-15T07:57:54.426Z,6.18
2023-03-15T08:00:22.865Z,6.22
2023-03-15T08:02:52.427Z,6.85
2023-03-15T08:05:19.260Z,5.97
2023-03-15T08:07:46.947Z,5.82
2023-03-15T08:10:14.267Z,5.18
2023-03-15T08:12:43.130Z,5.93
2023-03-15T08:15:16.150Z,6.43
2023-03-15T08:17:42.968Z,5.82
2023-03-15T08:20:17.535Z,5.25
2023-03-15T08:22:45.941Z,5.47
2023-03-15T08:25:14.211Z,4.45
2023-03-15T08:27:42.081Z,4.70
2023-03-15T08:30:12.430Z,4.38
2023-03-15T08:32:40.649Z,5.07
2023-03-15T08:35:07.840Z,3.75
2023-03-15T08:37:34.607Z,4.13
2023-03-15T08:40:05.294Z,3.65
2023-03-15T08:42:32.063Z,2.80
2023-03-15T08:44:59.769Z,3.58
2023-03-15T08:47:26.716Z,3.22
2023-03-15T08:49:53.427Z,3.75
2023-03-15T08:52:21.419Z,3.47
2023-03-15T08:54:48.637Z,3.15
2023-03-15T08:57:15.572Z,2.60
2023-03-15T08:59:42.355Z,3.00
2023-03-15T09:02:11.429Z,2.70
2023-03-15T09:04:38.337Z,3.00
2023-03-15T09:07:06.099Z,2.78
2023-03-15T09:09:33.718Z,3.00
2023-03-15T09:12:00.763Z,2.30
2023-03-15T09:14:28.208Z,2.65
2023-03-15T09:16:55.045Z,2.60
2023-03-15T09:19:21.922Z,2.05
2023-03-15T09:21:48.777Z,2.05
2023-03-15T09:24:15.482Z,2.08
2023-03-15T09:26:42.519Z,1.48
2023-03-15T09:29:09.616Z,2.00
2023-03-15T09:31:36.371Z,2.53
2023-03-15T09:34:03.553Z,2.10
2023-03-15T09:36:30.296Z,1.73
2023-03-15T09:38:57.285Z,1.38
2023-03-15T09:41:26.986Z,1.77
2023-03-15T09:44:00.987Z,1.73
2023-03-15T09:49:53.866Z,1.40
2023-03-15T09:52:51.217Z,1.80
2023-03-15T09:55:21.334Z,1.70
2023-03-15T09:57:58.537Z,2.20
2023-03-15T10:00:45.224Z,2.08
2023-03-15T10:03:21.505Z,1.70
2023-03-15T10:05:52.628Z,2.00
2023-03-15T10:08:19.889Z,2.22
2023-03-15T10:11:02.259Z,1.50
2023-03-15T10:13:39.591Z,2.22
2023-03-15T10:16:28.542Z,1.65
2023-03-15T10:19:04.419Z,1.52
2023-03-15T10:21:46.105Z,1.25
2023-03-15T10:24:44.902Z,1.92
2023-03-15T10:27:22.982Z,1.38
2023-03-15T10:29:50.380Z,2.53
2023-03-15T10:32:18.354Z,1.02
2023-03-15T10:34:52.245Z,0.80
2023-03-15T10:37:19.684Z,1.80
2023-03-15T10:39:48.017Z,0.80
2023-03-15T10:42:31.626Z,1.30
2023-03-15T10:44:58.994Z,0.93
2023-03-15T10:47:26.476Z,1.65
2023-03-15T10:49:59.631Z,1.48
2023-03-15T10:52:35.294Z,1.77
2023-03-15T10:55:17.184Z,2.63
2023-03-15T10:57:55.312Z,2.70
2023-03-15T11:00:25.249Z,1.88
2023-03-15T11:03:00.504Z,1.83
2023-03-15T11:05:40.894Z,2.08
2023-03-15T11:08:12.433Z,2.40
2023-03-15T11:10:39.093Z,2.28
2023-03-15T11:13:20.579Z,1.60
2023-03-15T11:16:09.835Z,1.60
2023-03-15T11:18:44.243Z,1.50
2023-03-15T11:21:14.192Z,0.93
2023-03-15T11:23:44.788Z,1.35
2023-03-15T11:26:32.232Z,1.27
2023-03-15T11:29:26.776Z,1.00
2023-03-15T11:31:53.917Z,1.90
2023-03-15T11:34:26.944Z,1.15
2023-03-15T11:37:07.482Z,1.30
2023-03-15T11:39:45.132Z,1.30
2023-03-15T11:42:21.260Z,0.70
2023-03-15T11:44:48.997Z,0.80
2023-03-15T11:47:43.379Z,0.95
2023-03-15T11:50:13.608Z,0.80
2023-03-15T11:52:41.277Z,1.05
2023-03-15T11:55:33.300Z,1.38
2023-03-15T11:58:33.039Z,0.95
2023-03-15T12:01:04.392Z,1.02
2023-03-15T12:03:49.578Z,1.30
2023-03-15T12:06:19.412Z,1.25
2023-03-15T12:08:51.421Z,1.27
2023-03-15T12:11:24.564Z,1.10
2023-03-15T12:14:23.039Z,1.77
2023-03-15T12:16:49.775Z,1.00
2023-03-15T12:19:18.302Z,17.95
2023-03-15T12:21:56.367Z,2.92
2023-03-15T12:24:26.640Z,2.28
2023-03-15T12:27:17.083Z,4.00
2023-03-15T12:29:47.340Z,0.85
2023-03-15T12:32:15.121Z,3.22
2023-03-15T12:34:55.032Z,0.80
2023-03-15T12:37:27.587Z,1.52
2023-03-15T12:40:01.711Z,1.83
2023-03-15T12:42:31.284Z,2.15
2023-03-15T12:45:16.227Z,0.98
2023-03-15T12:47:52.199Z,0.90
2023-03-15T12:50:38.459Z,1.15
2023-03-15T12:53:13.012Z,0.80
2023-03-15T12:55:40.103Z,0.80
2023-03-15T12:58:07.150Z,1.02
2023-03-15T13:00:34.010Z,0.88
2023-03-15T13:03:23.631Z,1.00
2023-03-15T13:06:27.793Z,0.77
2023-03-15T13:11:30.442Z,1.08
2023-03-15T13:14:11.315Z,0.82
2023-03-15T13:17:22.356Z,1.15
2023-03-15T13:19:55.177Z,1.45
2023-03-15T13:22:36.021Z,0.93
2023-03-15T13:25:15.929Z,0.80
2023-03-15T13:27:51.494Z,0.77
2023-03-15T13:30:32.204Z,0.95
2023-03-15T13:33:22.326Z,0.77
2023-03-15T13:36:01.348Z,0.63
2023-03-15T13:38:37.412Z,0.63
2023-03-15T13:41:05.796Z,0.80
2023-03-15T13:43:37.599Z,0.90
2023-03-15T13:46:04.491Z,0.93
2023-03-15T13:48:35.952Z,2.25
2023-03-15T13:51:17.387Z,0.88
2023-03-15T13:53:49.895Z,0.75
2023-03-15T13:56:19.356Z,0.70
2023-03-15T13:58:46.087Z,0.90
2023-03-15T14:01:13.094Z,0.93
2023-03-15T14:03:43.308Z,1.02
2023-03-15T14:06:13.840Z,0.85
2023-03-15T14:08:40.681Z,1.67
2023-03-15T14:11:24.911Z,0.90
2023-03-15T14:13:52.754Z,0.80
2023-03-15T14:16:57.155Z,0.75
2023-03-15T14:19:32.012Z,0.60
2023-03-15T14:22:00.819Z,1.00
2023-03-15T14:24:38.000Z,0.80
2023-03-15T14:27:18.796Z,1.00
2023-03-15T14:30:17.283Z,0.50
2023-03-15T14:32:52.339Z,1.00
2023-03-15T14:35:22.077Z,0.90
2023-03-15T14:37:49.071Z,1.40
2023-03-15T14:40:23.090Z,0.80
2023-03-15T14:45:17.758Z,1.13
2023-03-15T14:47:56.678Z,0.90
2023-03-15T14:50:26.122Z,1.08
2023-03-15T14:52:54.257Z,1.33
2023-03-15T14:55:23.205Z,1.00
2023-03-15T14:57:50.003Z,0.90
2023-03-15T15:00:17.753Z,1.30
2023-03-15T15:02:50.115Z,1.10
2023-03-15T15:05:29.497Z,0.70
2023-03-15T15:08:12.914Z,0.82
2023-03-15T15:10:40.712Z,0.40
2023-03-15T15:13:07.715Z,1.00
2023-03-15T15:15:47.436Z,1.33
2023-03-15T15:18:21.243Z,1.52
2023-03-15T15:20:48.135Z,1.10
2023-03-15T15:23:18.983Z,0.85
2023-03-15T15:25:46.855Z,1.65
2023-03-15T15:28:27.228Z,0.90
2023-03-15T15:31:00.131Z,0.93
2023-03-15T15:33:26.876Z,1.60
2023-03-15T15:35:54.951Z,1.10
2023-03-15T15:38:23.347Z,1.25
2023-03-15T15:40:52.169Z,0.90
2023-03-15T15:43:19.627Z,0.90
2023-03-15T15:45:46.741Z,0.70
2023-03-15T15:48:13.520Z,1.20
2023-03-15T15:50:40.381Z,2.13
2023-03-15T15:53:07.146Z,1.08
2023-03-15T15:55:39.233Z,0.90
2023-03-15T15:58:06.718Z,1.70
2023-03-15T16:00:34.024Z,1.25
2023-03-15T16:03:00.978Z,1.08
2023-03-15T16:05:31.342Z,0.93
2023-03-15T16:07:59.405Z,1.58
2023-03-15T16:10:30.260Z,0.88
2023-03-15T16:12:57.363Z,1.23
2023-03-15T16:15:24.190Z,0.85
2023-03-15T16:17:50.948Z,0.98
2023-03-15T16:20:18.754Z,1.02
2023-03-15T16:22:50.999Z,1.70
2023-03-15T16:25:23.819Z,0.88
2023-03-15T16:27:54.170Z,0.80
2023-03-15T16:30:22.219Z,1.60
2023-03-15T16:32:49.585Z,1.58
2023-03-15T16:35:16.427Z,0.98
2023-03-15T16:37:43.410Z,1.67
2023-03-15T16:40:21.771Z,1.00
2023-03-15T16:42:49.493Z,1.90
2023-03-15T16:45:16.416Z,1.55
2023-03-15T16:47:43.260Z,1.35
2023-03-15T16:50:10.843Z,1.38
2023-03-15T16:52:37.961Z,1.10
2023-03-15T16:55:05.144Z,1.13
2023-03-15T16:57:31.966Z,1.70
2023-03-15T16:59:58.669Z,1.40
2023-03-15T17:02:27.780Z,1.23
2023-03-15T17:04:54.671Z,1.20
2023-03-15T17:07:31.138Z,1.60
2023-03-15T17:09:58.283Z,1.30
2023-03-15T17:12:28.502Z,1.13
2023-03-15T17:14:56.735Z,1.05
2023-03-15T17:17:24.327Z,1.85
2023-03-15T17:19:55.708Z,1.20
2023-03-15T17:22:22.541Z,1.67
2023-03-15T17:24:49.380Z,2.10
2023-03-15T17:27:30.547Z,1.35
2023-03-15T17:29:57.509Z,1.88
2023-03-15T17:32:24.494Z,1.73
2023-03-15T17:34:51.496Z,2.25
2023-03-15T17:37:18.656Z,2.72
2023-03-15T17:39:45.491Z,2.13
2023-03-15T17:42:15.134Z,2.70
2023-03-15T17:44:42.214Z,2.47
2023-03-15T17:47:12.609Z,2.13
2023-03-15T17:49:39.927Z,1.65
2023-03-15T17:52:15.647Z,2.40
2023-03-15T17:54:42.516Z,1.67
2023-03-15T17:57:13.808Z,2.08
2023-03-15T17:59:40.784Z,2.17
2023-03-15T18:02:13.736Z,1.55
2023-03-15T18:04:40.435Z,2.38
2023-03-15T18:07:07.504Z,1.98
2023-03-15T18:09:34.300Z,2.40
2023-03-15T18:12:02.256Z,1.88
2023-03-15T18:14:30.919Z,2.47
2023-03-15T18:16:57.921Z,1.98
2023-03-15T18:19:25.509Z,1.27
2023-03-15T18:21:52.330Z,1.33
2023-03-15T18:24:19.565Z,1.98
2023-03-15T18:26:46.376Z,2.97
2023-03-15T18:29:13.275Z,1.95
2023-03-15T18:31:40.702Z,2.08
2023-03-15T18:34:07.786Z,1.75
2023-03-15T18:36:34.525Z,2.13
2023-03-15T18:39:01.263Z,2.10
2023-03-15T18:41:28.131Z,2.70
2023-03-15T18:43:54.880Z,2.05
2023-03-15T18:46:24.431Z,2.60
2023-03-15T18:48:53.396Z,1.17
2023-03-15T18:51:22.763Z,1.13
2023-03-15T18:53:49.696Z,1.80
2023-03-15T18:56:21.452Z,1.52
2023-03-15T18:58:48.638Z,2.10
2023-03-15T19:01:16.111Z,2.10
2023-03-15T19:03:43.448Z,1.83
2023-03-15T19:06:11.717Z,2.75
2023-03-15T19:08:38.525Z,3.25
2023-03-15T19:11:06.132Z,1.75
2023-03-15T19:13:32.901Z,2.40
2023-03-15T19:15:59.720Z,2.38
2023-03-15T19:18:26.488Z,1.45
2023-03-15T19:20:56.338Z,3.38
2023-03-15T19:23:23.062Z,1.60
2023-03-15T19:25:50.271Z,1.95
2023-03-15T19:28:19.102Z,1.65
2023-03-15T19:30:45.965Z,2.10
2023-03-15T19:33:12.716Z,2.13
2023-03-15T19:35:40.667Z,1.92
2023-03-15T19:38:07.429Z,1.90
2023-03-15T19:40:34.148Z,2.33
2023-03-15T19:43:01.001Z,1.85
2023-03-15T19:45:27.869Z,1.75
2023-03-15T19:47:54.637Z,2.22
2023-03-15T19:50:21.679Z,2.08
2023-03-15T19:52:48.641Z,1.63
2023-03-15T19:55:17.043Z,1.67
2023-03-15T19:57:44.185Z,1.60
2023-03-15T20:00:16.019Z,1.20
2023-03-15T20:02:43.667Z,1.38
2023-03-15T20:05:11.368Z,1.80
2023-03-15T20:07:38.226Z,1.90
2023-03-15T20:10:06.011Z,1.75
2023-03-15T20:12:32.788Z,1.38
2023-03-15T20:14:59.813Z,1.92
2023-03-15T20:17:27.494Z,2.03
2023-03-15T20:19:54.605Z,3.58
2023-03-15T20:22:21.542Z,2.22
2023-03-15T20:24:48.377Z,2.28
2023-03-15T20:27:15.057Z,1.60
2023-03-15T20:29:41.870Z,1.83
2023-03-15T20:32:09.651Z,1.52
2023-03-15T20:34:40.066Z,1.65
2023-03-15T20:37:07.203Z,1.60
2023-03-15T20:39:34.115Z,2.17
2023-03-15T20:42:01.518Z,1.80
2023-03-15T20:44:28.351Z,2.00
2023-03-15T20:46:58.724Z,1.65
2023-03-15T20:49:28.166Z,3.45
2023-03-15T20:51:55.923Z,1.55
2023-03-15T20:54:22.662Z,1.33
2023-03-15T20:56:49.406Z,1.77
2023-03-15T20:59:16.146Z,1.40
2023-03-15T21:01:42.894Z,1.10
2023-03-15T21:04:11.235Z,1.70
2023-03-15T21:06:38.015Z,1.23
2023-03-15T21:09:05.342Z,1.60
2023-03-15T21:11:32.485Z,1.38
2023-03-15T21:13:59.235Z,1.73
2023-03-15T21:16:26.576Z,1.40
2023-03-15T21:18:54.727Z,1.42
2023-03-15T21:21:21.553Z,1.73
2023-03-15T21:23:48.372Z,1.63
2023-03-15T21:26:15.500Z,2.75
2023-03-15T21:28:42.347Z,1.58
2023-03-15T21:31:09.794Z,1.88
2023-03-15T21:33:36.673Z,1.90
2023-03-15T21:36:03.563Z,1.60
2023-03-15T21:38:31.724Z,1.60
2023-03-15T21:40:59.465Z,1.60
2023-03-15T21:43:27.221Z,1.83
2023-03-15T21:45:54.136Z,2.33
2023-03-15T21:48:21.085Z,1.90
2023-03-15T21:50:48.869Z,1.90
2023-03-15T21:53:15.609Z,1.90
2023-03-15T21:55:42.383Z,2.70
2023-03-15T21:58:09.762Z,2.28
2023-03-15T22:00:36.606Z,1.65
2023-03-15T22:03:03.703Z,2.25
2023-03-15T22:05:30.558Z,2.50
2023-03-15T22:07:57.299Z,3.10
2023-03-15T22:10:24.716Z,1.48
2023-03-15T22:12:54.524Z,1.55
2023-03-15T22:15:24.329Z,1.95
2023-03-15T22:17:51.263Z,2.35
2023-03-15T22:20:18.544Z,1.55
2023-03-15T22:22:46.122Z,1.92
2023-03-15T22:25:13.127Z,1.40
2023-03-15T22:27:40.342Z,2.08
2023-03-15T22:30:07.670Z,2.03
2023-03-15T22:32:34.515Z,1.38
2023-03-15T22:35:01.205Z,1.92
2023-03-15T22:37:27.966Z,1.92
2023-03-15T22:39:54.744Z,1.90
2023-03-15T22:42:21.405Z,1.92
2023-03-15T22:44:48.241Z,1.90
2023-03-15T22:47:14.942Z,2.55
2023-03-15T22:49:41.622Z,2.70
2023-03-15T22:52:08.314Z,2.60
2023-03-15T22:54:35.187Z,4.63
2023-03-15T22:57:01.849Z,2.20
2023-03-15T22:59:28.990Z,3.28
2023-03-15T23:01:57.089Z,2.33
2023-03-15T23:04:24.019Z,2.33
2023-03-15T23:06:51.790Z,2.25
2023-03-15T23:09:18.560Z,2.30
2023-03-15T23:11:45.228Z,2.03
2023-03-15T23:14:12.023Z,2.10
2023-03-15T23:16:38.874Z,1.67
2023-03-15T23:19:05.650Z,2.05
2023-03-15T23:21:32.412Z,1.58
2023-03-15T23:23:59.067Z,1.83
2023-03-15T23:26:25.759Z,1.60
2023-03-15T23:28:53.377Z,2.13
2023-03-15T23:31:20.358Z,1.70
2023-03-15T23:33:47.104Z,2.47
2023-03-15T23:36:13.893Z,1.80
2023-03-15T23:38:40.827Z,1.75
2023-03-15T23:41:07.528Z,2.10
2023-03-15T23:43:34.201Z,4.57
2023-03-15T23:46:05.788Z,1.88
2023-03-15T23:48:35.610Z,1.95
2023-03-15T23:51:05.340Z,2.30
2023-03-15T23:53:32.237Z,1.95
2023-03-15T23:55:58.976Z,1.90
2023-03-15T23:58:25.812Z,2.35
